Cone, Texas
Current Conditions -  °F | °C
As of 9:53 AM on Thursday 29 Jan 2015 (Local Time) from KLBB Reporting Station
Overcast Overcast  
Wind Chill: 40°   Ceiling: 18000
Heat Index: 47°   Visibility: 10mi
Dew Point: 34°   Wind: 16mph
Humidity: 61%   Direction: 30°NNE
Pressure: 30.39"   Gusts: NA
Location:  33.5997°N, 101.355°W
Report Text: KLBB 291553Z 03014KT 10SM BKN180 OVC260 08/01 A3039 RMK AO2 SLP278 T00830011
Loading
Personal Weather Stations






























Interactive Weather Map New forecast layout! Learn more

10-Day Weather Forecast

Advertisements
Track Severe Weather on mobile